Time;durP1;ratioP1;P1;durP2;ratioP2;P2;SDS_P1;SDS_P2;PMS_P1;PMS_P2;Temp;Humidity;BMP_temperature;BMP_pressure;BME280_temperature;BME280_humidity;BME280_pressure;Samples;Min_cycle;Max_cycle;Signal;HPM_P1;HPM_P2
2022/09/21 00:01:14;;;;;;;11.43;6.20;;;19.60;52.60;;;;;;5024696;28;20464;-79
2022/09/21 00:03:43;;;;;;;13.60;6.57;;;19.60;53.10;;;;;;5027075;28;20951;-81
2022/09/21 00:06:12;;;;;;;16.77;6.90;;;19.70;52.60;;;;;;5027297;28;20448;-80
2022/09/21 00:08:41;;;;;;;12.77;6.57;;;19.60;52.40;;;;;;5014044;28;20448;-80
2022/09/21 00:11:11;;;;;;;12.10;6.43;;;19.60;52.50;;;;;;5007390;28;20469;-79
2022/09/21 00:13:40;;;;;;;13.00;6.37;;;19.60;52.40;;;;;;5008807;28;20429;-81
2022/09/21 00:16:09;;;;;;;15.17;6.80;;;19.60;52.60;;;;;;5025931;28;20441;-81
2022/09/21 00:18:36;;;;;;;14.73;6.10;;;19.50;52.40;;;;;;5011958;28;20485;-79
2022/09/21 00:21:07;;;;;;;12.20;6.73;;;19.50;52.50;;;;;;5001436;28;20477;-80
2022/09/21 00:23:36;;;;;;;13.90;6.27;;;19.40;52.60;;;;;;5001837;28;20445;-80
2022/09/21 00:26:06;;;;;;;15.10;6.20;;;19.50;52.70;;;;;;5023681;28;20821;-81
2022/09/21 00:28:34;;;;;;;13.10;6.77;;;19.50;52.70;;;;;;5025873;28;20776;-80
2022/09/21 00:31:04;;;;;;;14.87;5.87;;;19.50;52.70;;;;;;5025602;28;20460;-81
2022/09/21 00:33:32;;;;;;;13.90;5.87;;;19.50;52.60;;;;;;5025683;28;20436;-81
2022/09/21 00:36:03;;;;;;;12.50;6.20;;;19.40;52.60;;;;;;5026271;28;20423;-81
2022/09/21 00:38:31;;;;;;;14.63;6.10;;;19.30;52.50;;;;;;5025876;28;20443;-81
2022/09/21 00:41:00;;;;;;;13.20;5.97;;;19.30;52.60;;;;;;5014444;28;20477;-81
2022/09/21 00:43:29;;;;;;;13.00;5.80;;;19.30;52.80;;;;;;5011527;28;20437;-81
2022/09/21 00:45:59;;;;;;;14.73;5.60;;;19.30;52.50;;;;;;5000673;28;20461;-80
2022/09/21 00:48:27;;;;;;;12.07;5.30;;;19.30;52.60;;;;;;5005056;28;20410;-81
2022/09/21 00:50:57;;;;;;;11.40;5.90;;;19.30;52.70;;;;;;5004377;28;20465;-81
2022/09/21 00:53:27;;;;;;;10.20;5.80;;;19.20;52.40;;;;;;5005021;28;20445;-80
2022/09/21 00:55:56;;;;;;;10.43;5.87;;;19.20;52.80;;;;;;5004646;28;20449;-81
2022/09/21 00:58:26;;;;;;;11.20;5.20;;;19.20;52.50;;;;;;5004825;28;20461;-81
2022/09/21 01:00:56;;;;;;;12.60;5.90;;;19.20;52.60;;;;;;5021660;28;20467;-80
2022/09/21 01:03:24;;;;;;;13.13;6.03;;;19.20;52.60;;;;;;5024473;28;20436;-80
2022/09/21 01:05:52;;;;;;;13.37;5.83;;;19.10;52.40;;;;;;5023355;28;20432;-80
2022/09/21 01:08:20;;;;;;;12.43;5.27;;;19.10;52.60;;;;;;5023818;28;20444;-79
2022/09/21 01:11:00;;;;;;;14.67;5.97;;;19.10;52.70;;;;;;5020451;28;20453;-81
2022/09/21 01:13:32;;;;;;;11.33;5.57;;;19.10;52.60;;;;;;5005175;28;20460;-80
2022/09/21 01:16:05;;;;;;;12.63;5.20;;;19.10;52.70;;;;;;5013929;28;20452;-81
2022/09/21 01:18:36;;;;;;;15.03;6.13;;;19.10;52.50;;;;;;5015690;28;20476;-81
2022/09/21 01:21:21;;;;;;;11.03;5.13;;;19.00;52.80;;;;;;5018221;28;20452;-81
2022/09/21 01:24:11;;;;;;;11.20;4.90;;;19.00;52.50;;;;;;5024031;28;20449;-80
2022/09/21 01:26:49;;;;;;;12.13;5.53;;;19.00;52.70;;;;;;5013761;28;20499;-81
2022/09/21 01:29:20;;;;;;;7.67;5.30;;;19.00;52.80;;;;;;5024591;28;20531;-80
2022/09/21 01:31:51;;;;;;;11.97;5.23;;;19.00;52.60;;;;;;5022861;28;20450;-81
2022/09/21 01:34:24;;;;;;;9.60;5.37;;;19.00;52.70;;;;;;5023926;28;20420;-81
2022/09/21 01:36:52;;;;;;;10.43;5.20;;;19.00;52.60;;;;;;5023416;28;20452;-81
2022/09/21 01:39:21;;;;;;;12.43;5.10;;;19.00;52.30;;;;;;5010147;28;20484;-81
2022/09/21 01:41:49;;;;;;;8.83;4.97;;;19.00;52.50;;;;;;5006301;28;20469;-81
2022/09/21 01:44:20;;;;;;;10.97;5.20;;;18.90;52.50;;;;;;5003944;28;20441;-81
2022/09/21 01:46:48;;;;;;;15.00;6.23;;;18.80;52.50;;;;;;4996660;28;20457;-81
2022/09/21 01:49:18;;;;;;;9.77;5.23;;;18.80;52.60;;;;;;4998597;28;20468;-80
2022/09/21 01:51:48;;;;;;;8.70;4.77;;;18.80;52.70;;;;;;5010570;28;20473;-79
2022/09/21 01:54:20;;;;;;;9.13;5.23;;;18.70;52.50;;;;;;5027791;28;20440;-79
2022/09/21 01:56:50;;;;;;;9.23;4.80;;;18.70;52.70;;;;;;5027715;28;20459;-81
2022/09/21 01:59:22;;;;;;;8.73;4.93;;;18.80;52.70;;;;;;5028164;28;20452;-80
2022/09/21 02:01:52;;;;;;;9.10;5.13;;;18.80;52.50;;;;;;5026960;28;20482;-81
2022/09/21 02:04:20;;;;;;;8.27;4.73;;;18.80;52.50;;;;;;5026870;28;20547;-81
2022/09/21 02:06:48;;;;;;;7.87;4.60;;;18.80;52.40;;;;;;5007860;28;20464;-81
2022/09/21 02:09:17;;;;;;;10.00;5.23;;;18.70;52.40;;;;;;4997556;28;20527;-81
2022/09/21 02:11:45;;;;;;;12.83;5.90;;;18.70;52.50;;;;;;5029350;28;20444;-81
2022/09/21 02:14:14;;;;;;;9.00;5.30;;;18.70;52.70;;;;;;5020248;28;20464;-81
2022/09/21 02:16:46;;;;;;;7.83;5.30;;;18.60;52.60;;;;;;5008942;28;20449;-82
2022/09/21 02:19:18;;;;;;;15.90;5.90;;;18.60;52.60;;;;;;5023112;28;20472;-80
2022/09/21 02:21:57;;;;;;;9.60;5.60;;;18.60;52.60;;;;;;5023716;28;20465;-79
2022/09/21 02:24:33;;;;;;;12.47;6.40;;;18.60;52.60;;;;;;4996533;28;20449;-78
2022/09/21 02:27:04;;;;;;;14.80;8.60;;;18.60;52.50;;;;;;5009511;28;20423;-79
2022/09/21 02:29:38;;;;;;;13.83;8.60;;;18.60;52.60;;;;;;4999141;28;20473;-79
2022/09/21 02:32:09;;;;;;;16.80;9.10;;;18.60;52.60;;;;;;4997876;28;20424;-79
2022/09/21 02:34:40;;;;;;;17.93;10.00;;;18.60;52.60;;;;;;4997008;28;20433;-79
2022/09/21 02:37:12;;;;;;;16.37;9.00;;;18.50;52.60;;;;;;4997083;28;20790;-79
2022/09/21 02:39:43;;;;;;;16.83;9.63;;;18.50;52.50;;;;;;4998150;28;20469;-79
2022/09/21 02:42:13;;;;;;;17.97;10.10;;;18.60;52.50;;;;;;5012101;28;20476;-79
2022/09/21 02:44:44;;;;;;;14.70;9.30;;;18.50;52.50;;;;;;5000923;28;20460;-79
2022/09/21 02:47:14;;;;;;;16.23;9.50;;;18.50;52.90;;;;;;5005613;28;20440;-80
2022/09/21 02:49:44;;;;;;;16.80;9.20;;;18.50;52.50;;;;;;5000444;28;20480;-80
2022/09/21 02:52:13;;;;;;;14.13;9.07;;;18.50;52.60;;;;;;4998826;28;20449;-81
2022/09/21 02:54:43;;;;;;;17.30;9.53;;;18.40;52.70;;;;;;5004932;28;20463;-79
2022/09/21 02:57:11;;;;;;;17.47;9.80;;;18.40;52.90;;;;;;4998998;28;20445;-81
2022/09/21 02:59:39;;;;;;;19.30;9.97;;;18.40;52.70;;;;;;4993061;28;20548;-80
2022/09/21 03:02:10;;;;;;;15.97;8.87;;;18.40;52.70;;;;;;5003643;28;20433;-80
2022/09/21 03:04:40;;;;;;;14.67;8.70;;;18.40;52.70;;;;;;5017064;28;20456;-80
2022/09/21 03:07:08;;;;;;;16.70;9.17;;;18.40;52.80;;;;;;5017763;28;20452;-81
2022/09/21 03:09:37;;;;;;;12.80;8.43;;;18.40;52.70;;;;;;4982154;28;20480;-81
2022/09/21 03:12:05;;;;;;;14.77;9.07;;;18.40;52.40;;;;;;4996898;28;20445;-81
2022/09/21 03:14:33;;;;;;;14.30;8.73;;;18.30;52.50;;;;;;4997779;28;20540;-81
2022/09/21 03:17:02;;;;;;;16.80;8.90;;;18.30;52.60;;;;;;4998093;28;20464;-80
2022/09/21 03:19:30;;;;;;;15.57;9.00;;;18.40;52.70;;;;;;4997853;28;20464;-81
2022/09/21 03:21:59;;;;;;;17.03;9.27;;;18.40;52.50;;;;;;4997190;28;20445;-81
2022/09/21 03:27:22;;;;;;;13.30;8.67;;;18.20;52.50;;;;;;4952409;28;20477;-81
2022/09/21 03:29:50;;;;;;;16.90;9.00;;;18.20;52.40;;;;;;4999371;28;20469;-81
2022/09/21 03:32:19;;;;;;;15.20;9.20;;;18.20;52.60;;;;;;4978074;28;20454;-80
2022/09/21 03:34:47;;;;;;;13.30;8.73;;;18.20;52.70;;;;;;4978248;28;20453;-80
2022/09/21 03:37:16;;;;;;;14.17;8.57;;;18.20;52.70;;;;;;4997477;28;20440;-81
2022/09/21 03:39:45;;;;;;;14.27;8.10;;;18.20;52.80;;;;;;4997861;28;20461;-80
2022/09/21 03:42:13;;;;;;;14.33;8.23;;;18.30;52.60;;;;;;4990015;28;20509;-79
2022/09/21 03:44:41;;;;;;;17.83;8.40;;;18.20;52.30;;;;;;4979919;28;20474;-80
2022/09/21 03:47:09;;;;;;;14.00;8.13;;;18.20;52.30;;;;;;5005282;28;20450;-80
2022/09/21 03:49:38;;;;;;;12.63;8.23;;;18.10;52.60;;;;;;5003560;28;20476;-79
2022/09/21 03:52:06;;;;;;;12.03;8.07;;;18.10;52.40;;;;;;4997002;28;20441;-80
2022/09/21 03:54:35;;;;;;;12.67;8.20;;;18.10;52.60;;;;;;4996544;28;20948;-79
2022/09/21 03:57:04;;;;;;;13.00;7.50;;;18.10;52.50;;;;;;4997067;28;20460;-79
2022/09/21 03:59:31;;;;;;;14.10;7.60;;;18.10;52.60;;;;;;4996469;28;20464;-80
2022/09/21 04:01:59;;;;;;;11.03;7.70;;;18.10;52.60;;;;;;4997009;28;20469;-80
2022/09/21 04:04:27;;;;;;;11.10;7.47;;;18.10;52.40;;;;;;5002960;28;20532;-80
2022/09/21 04:06:55;;;;;;;14.50;8.20;;;18.10;52.50;;;;;;4996804;28;20453;-80
2022/09/21 04:09:24;;;;;;;10.80;6.77;;;18.00;52.60;;;;;;4991732;28;20481;-80
2022/09/21 04:11:53;;;;;;;10.70;7.57;;;18.00;52.40;;;;;;4996296;28;20449;-79
2022/09/21 04:14:22;;;;;;;8.73;6.23;;;18.00;52.40;;;;;;4996229;28;20465;-79
2022/09/21 04:16:50;;;;;;;11.27;7.23;;;18.00;52.70;;;;;;4995633;28;20464;-80
2022/09/21 04:19:21;;;;;;;9.93;6.87;;;18.00;52.70;;;;;;4997038;28;20469;-80
2022/09/21 04:21:50;;;;;;;10.03;6.97;;;18.10;52.50;;;;;;4996577;28;20453;-80
2022/09/21 04:24:18;;;;;;;13.40;6.60;;;18.00;52.20;;;;;;4996295;28;20480;-79
2022/09/21 04:26:46;;;;;;;13.73;7.10;;;18.00;52.30;;;;;;4991169;28;20459;-80
2022/09/21 04:29:16;;;;;;;13.87;6.70;;;18.00;52.40;;;;;;4988098;28;20516;-79
2022/09/21 04:31:43;;;;;;;10.23;6.80;;;18.00;52.30;;;;;;5014672;28;20433;-80
2022/09/21 04:34:12;;;;;;;8.73;6.33;;;18.00;52.40;;;;;;5003102;28;20456;-80
2022/09/21 04:36:40;;;;;;;13.57;6.90;;;17.90;52.40;;;;;;5015798;28;20441;-80
2022/09/21 04:39:08;;;;;;;10.83;7.10;;;17.90;52.60;;;;;;5015458;28;20459;-81
2022/09/21 04:41:36;;;;;;;10.10;6.50;;;17.90;52.60;;;;;;5010989;28;20453;-80
2022/09/21 04:44:05;;;;;;;9.87;6.70;;;18.00;52.60;;;;;;4995437;28;20473;-78
2022/09/21 04:46:34;;;;;;;9.43;6.40;;;17.90;52.40;;;;;;4994869;28;20441;-79
2022/09/21 04:49:02;;;;;;;9.27;6.20;;;17.90;52.50;;;;;;4994920;28;20512;-79
2022/09/21 04:51:30;;;;;;;8.90;6.03;;;17.90;53.20;;;;;;4979927;28;20437;-80
2022/09/21 04:53:58;;;;;;;9.13;5.97;;;17.90;52.70;;;;;;4977217;28;20441;-80
2022/09/21 04:56:28;;;;;;;9.07;6.33;;;17.80;52.50;;;;;;4977035;28;20537;-81
2022/09/21 04:58:57;;;;;;;9.93;6.00;;;17.80;53.50;;;;;;4989688;28;20456;-80
2022/09/21 05:01:25;;;;;;;9.13;6.20;;;17.80;52.60;;;;;;5003843;28;20444;-82
2022/09/21 05:03:57;;;;;;;8.47;6.00;;;17.80;53.00;;;;;;5018503;28;20472;-83
2022/09/21 05:06:25;;;;;;;10.57;5.90;;;17.80;53.40;;;;;;5017709;28;20513;-82
2022/09/21 05:11:40;;;;;;;7.90;5.83;;;17.90;52.70;;;;;;5014985;28;20453;-82
2022/09/21 05:14:07;;;;;;;10.40;6.33;;;17.80;52.20;;;;;;5000862;28;20445;-83
2022/09/21 05:16:36;;;;;;;9.47;6.33;;;17.70;52.50;;;;;;5000189;28;20449;-82
2022/09/21 05:19:05;;;;;;;10.40;6.10;;;17.70;52.60;;;;;;4998764;28;20453;-85
2022/09/21 05:21:35;;;;;;;11.43;5.73;;;17.80;53.00;;;;;;5014997;28;20460;-84
2022/09/21 05:24:03;;;;;;;9.03;5.73;;;17.80;53.10;;;;;;5012880;28;20472;-83
2022/09/21 05:26:32;;;;;;;10.70;6.10;;;17.80;52.90;;;;;;4997827;28;20457;-84
2022/09/21 05:29:00;;;;;;;9.80;5.73;;;17.70;52.70;;;;;;5003033;28;20457;-83
2022/09/21 05:31:36;;;;;;;8.20;5.80;;;17.70;52.80;;;;;;5008600;28;20447;-83
2022/09/21 05:34:09;;;;;;;9.93;5.60;;;17.70;53.00;;;;;;5022784;28;20443;-81
2022/09/21 05:36:42;;;;;;;8.33;5.40;;;17.70;52.80;;;;;;5024312;28;20448;-83
2022/09/21 05:39:10;;;;;;;9.60;5.77;;;17.70;52.60;;;;;;5007991;28;20461;-83
2022/09/21 05:41:40;;;;;;;7.67;5.83;;;17.60;52.70;;;;;;5003787;28;20437;-83
2022/09/21 05:44:10;;;;;;;6.27;4.93;;;17.60;52.70;;;;;;5004416;28;20465;-84
2022/09/21 05:46:39;;;;;;;11.40;5.17;;;17.60;52.90;;;;;;5004588;28;20675;-83
2022/09/21 05:49:14;;;;;;;6.60;5.23;;;17.70;53.00;;;;;;5004948;28;20449;-83
2022/09/21 05:51:46;;;;;;;6.30;5.03;;;17.70;52.70;;;;;;5003238;28;20448;-83
2022/09/21 05:54:17;;;;;;;10.27;5.70;;;17.70;53.00;;;;;;5003456;28;20463;-84
2022/09/21 05:56:48;;;;;;;6.37;5.20;;;17.60;52.80;;;;;;5011843;28;20444;-83
2022/09/21 05:59:43;;;;;;;9.30;5.63;;;17.70;53.00;;;;;;5020788;28;20547;-85
2022/09/21 06:02:18;;;;;;;6.17;4.97;;;17.60;52.60;;;;;;5015276;28;20452;-84
2022/09/21 06:04:48;;;;;;;7.80;5.43;;;17.70;52.80;;;;;;5023181;28;20507;-83
2022/09/21 06:07:17;;;;;;;5.57;4.80;;;17.70;52.70;;;;;;5023888;28;20452;-85
2022/09/21 06:09:45;;;;;;;7.60;5.10;;;17.70;52.50;;;;;;5022187;28;20459;-83
2022/09/21 06:12:13;;;;;;;7.50;5.27;;;17.70;52.80;;;;;;5020449;28;20445;-83
2022/09/21 06:14:41;;;;;;;4.87;4.37;;;17.70;52.60;;;;;;5002258;28;20461;-84
2022/09/21 06:17:09;;;;;;;11.43;4.37;;;17.70;52.30;;;;;;5020387;28;20819;-82
2022/09/21 06:19:37;;;;;;;12.77;5.17;;;17.70;52.80;;;;;;5003324;28;20477;-83
2022/09/21 06:22:07;;;;;;;5.00;4.43;;;17.70;52.60;;;;;;5003010;28;20464;-83
2022/09/21 06:24:35;;;;;;;7.10;4.37;;;17.70;52.60;;;;;;5005902;28;20471;-83
2022/09/21 06:27:03;;;;;;;6.37;4.37;;;17.70;52.60;;;;;;5011356;28;20452;-84
2022/09/21 06:29:32;;;;;;;5.90;4.70;;;17.70;52.70;;;;;;5017630;28;20471;-84
2022/09/21 06:32:01;;;;;;;7.33;4.97;;;17.70;52.60;;;;;;5004885;28;20475;-83
2022/09/21 06:34:29;;;;;;;8.23;4.83;;;17.70;52.70;;;;;;5006082;28;20448;-83
2022/09/21 06:37:02;;;;;;;6.33;4.77;;;17.70;52.50;;;;;;5002212;28;20449;-83
2022/09/21 06:39:31;;;;;;;5.23;4.53;;;17.70;52.70;;;;;;5001834;28;20477;-83
2022/09/21 06:41:59;;;;;;;5.17;4.20;;;17.80;52.80;;;;;;5001979;28;20452;-84
2022/09/21 06:44:28;;;;;;;6.30;4.67;;;17.80;52.50;;;;;;5004902;28;20475;-82
2022/09/21 06:46:56;;;;;;;7.83;4.20;;;17.80;52.40;;;;;;4998624;28;20455;-83
2022/09/21 06:49:27;;;;;;;8.77;4.53;;;17.80;52.50;;;;;;5000805;28;20485;-83
2022/09/21 06:51:55;;;;;;;5.53;4.23;;;17.80;52.70;;;;;;5000479;28;20457;-83
2022/09/21 06:54:24;;;;;;;6.10;4.50;;;17.80;52.30;;;;;;5004652;28;20437;-83
2022/09/21 06:56:53;;;;;;;6.93;4.83;;;17.90;52.30;;;;;;5002673;28;20452;-82
2022/09/21 06:59:26;;;;;;;5.07;4.10;;;17.90;52.50;;;;;;5014117;28;20469;-83
2022/09/21 07:01:57;;;;;;;5.30;4.07;;;17.90;52.40;;;;;;5019273;28;20440;-83
2022/09/21 07:04:25;;;;;;;4.80;4.10;;;17.90;52.50;;;;;;5021504;28;20471;-83
2022/09/21 07:06:53;;;;;;;6.70;4.90;;;17.90;52.00;;;;;;5022499;28;20448;-83
2022/09/21 07:09:22;;;;;;;6.70;3.70;;;18.00;52.30;;;;;;5023557;28;20476;-84
2022/09/21 07:12:13;;;;;;;4.73;4.27;;;18.00;52.40;;;;;;5023784;28;20975;-83
2022/09/21 07:14:45;;;;;;;4.33;3.80;;;18.00;52.40;;;;;;5018497;28;20468;-82
2022/09/21 07:17:13;;;;;;;5.60;4.00;;;18.00;52.30;;;;;;5011698;28;20457;-82
2022/09/21 07:19:42;;;;;;;6.63;4.00;;;18.10;52.40;;;;;;5006179;28;20457;-83
2022/09/21 07:22:11;;;;;;;6.53;4.33;;;18.10;52.00;;;;;;5000615;28;20430;-83
2022/09/21 07:24:39;;;;;;;6.53;4.10;;;18.10;52.00;;;;;;5002763;28;20481;-83
2022/09/21 07:27:06;;;;;;;5.57;4.30;;;18.10;52.30;;;;;;5002521;28;20457;-84
2022/09/21 07:29:36;;;;;;;5.20;3.87;;;18.10;51.90;;;;;;5001990;28;20473;-84
2022/09/21 07:32:04;;;;;;;6.57;4.67;;;18.10;52.10;;;;;;5009658;28;20465;-84
2022/09/21 07:34:35;;;;;;;5.43;4.13;;;18.10;52.20;;;;;;5003989;28;20453;-83
2022/09/21 07:37:04;;;;;;;5.17;4.20;;;18.20;51.90;;;;;;5013366;28;20456;-83
2022/09/21 07:39:32;;;;;;;6.20;3.70;;;18.20;52.30;;;;;;5011232;28;20473;-83
2022/09/21 07:42:00;;;;;;;5.77;4.03;;;18.20;52.20;;;;;;4999878;28;20461;-83
2022/09/21 07:44:28;;;;;;;4.77;3.77;;;18.30;52.00;;;;;;5003673;28;20441;-83
2022/09/21 07:46:58;;;;;;;4.47;4.03;;;18.40;52.00;;;;;;4992755;28;20445;-83
2022/09/21 07:49:26;;;;;;;5.17;4.00;;;18.40;52.00;;;;;;5008133;28;20488;-84
2022/09/21 07:51:54;;;;;;;6.77;3.77;;;18.40;51.80;;;;;;5011954;28;20463;-85
2022/09/21 07:54:29;;;;;;;7.10;3.83;;;18.50;51.90;;;;;;5021422;28;20436;-84
2022/09/21 07:59:43;;;;;;;4.00;3.17;;;18.60;52.00;;;;;;5007101;28;20473;-83
2022/09/21 08:02:13;;;;;;;6.93;4.03;;;18.60;51.60;;;;;;5007290;28;20543;-84
2022/09/21 08:04:41;;;;;;;5.17;4.07;;;18.70;51.60;;;;;;5004076;28;20463;-83
2022/09/21 08:07:09;;;;;;;3.80;3.50;;;18.80;51.80;;;;;;5012930;28;20437;-84
2022/09/21 08:09:38;;;;;;;5.50;3.57;;;18.90;52.00;;;;;;5021869;28;20476;-86
2022/09/21 08:12:06;;;;;;;4.40;3.63;;;19.00;52.00;;;;;;5024091;28;20459;-83
2022/09/21 08:14:34;;;;;;;4.00;3.63;;;19.20;52.10;;;;;;5017291;28;20453;-83
2022/09/21 08:17:03;;;;;;;4.97;3.67;;;19.30;52.00;;;;;;5002086;28;20460;-84
2022/09/21 08:19:32;;;;;;;3.60;3.30;;;19.50;52.10;;;;;;5010592;28;20476;-83
2022/09/21 08:22:00;;;;;;;3.73;3.43;;;19.80;52.90;;;;;;5011644;28;20453;-83
2022/09/21 08:24:28;;;;;;;4.00;3.47;;;20.00;52.20;;;;;;5025964;28;20442;-83
2022/09/21 08:26:56;;;;;;;3.77;3.37;;;20.20;52.20;;;;;;5021917;28;20479;-84
2022/09/21 08:29:24;;;;;;;4.03;3.63;;;20.50;52.30;;;;;;5022834;28;20479;-83
2022/09/21 08:31:53;;;;;;;2.90;2.70;;;20.70;52.20;;;;;;5023252;28;20452;-81
2022/09/21 08:34:22;;;;;;;4.03;3.60;;;21.00;52.30;;;;;;5012517;28;20457;-81
2022/09/21 08:36:52;;;;;;;3.77;3.47;;;21.20;52.30;;;;;;5011638;28;20463;-83
2022/09/21 08:39:22;;;;;;;3.77;3.33;;;21.50;52.10;;;;;;5021468;28;20468;-84
2022/09/21 08:42:01;;;;;;;4.90;3.13;;;21.70;52.50;;;;;;5019936;28;20539;-84
2022/09/21 08:44:30;;;;;;;3.37;3.00;;;22.00;52.10;;;;;;5008188;28;20457;-84
2022/09/21 08:47:03;;;;;;;3.60;3.30;;;22.20;51.90;;;;;;4998338;28;20477;-84
2022/09/21 08:49:31;;;;;;;3.60;3.30;;;22.40;52.00;;;;;;5005876;28;20544;-83
2022/09/21 08:52:02;;;;;;;3.80;2.93;;;22.70;52.00;;;;;;5014027;28;20456;-84
2022/09/21 08:54:34;;;;;;;6.23;3.73;;;22.90;52.00;;;;;;5015858;28;20451;-84
2022/09/21 08:57:02;;;;;;;3.63;3.30;;;23.20;51.90;;;;;;5026224;28;20452;-84
2022/09/21 08:59:34;;;;;;;6.07;3.77;;;23.40;51.80;;;;;;5024461;28;20496;-82
2022/09/21 09:02:05;;;;;;;4.43;3.70;;;23.70;51.90;;;;;;5021600;28;20452;-84
2022/09/21 09:04:53;;;;;;;3.43;3.13;;;23.90;51.70;;;;;;5023244;28;20444;-82
2022/09/21 09:07:30;;;;;;;3.50;3.30;;;24.20;51.70;;;;;;5013226;28;20476;-83
2022/09/21 09:10:06;;;;;;;3.30;3.03;;;24.40;51.60;;;;;;5006437;28;20469;-83
2022/09/21 09:12:44;;;;;;;3.33;3.03;;;24.60;51.40;;;;;;5002378;28;20435;-83
2022/09/21 09:15:25;;;;;;;3.47;3.17;;;24.90;51.30;;;;;;5000557;28;20420;-81
2022/09/21 09:17:56;;;;;;;5.20;3.63;;;25.20;51.20;;;;;;5012085;28;20456;-82
2022/09/21 09:20:26;;;;;;;4.13;3.60;;;25.50;50.90;;;;;;5007284;28;20436;-79
2022/09/21 09:23:02;;;;;;;4.50;3.50;;;25.80;50.80;;;;;;5011829;28;20459;-80
2022/09/21 09:25:34;;;;;;;3.90;3.53;;;26.00;50.50;;;;;;5027760;28;20406;-83
2022/09/21 09:28:10;;;;;;;4.23;3.83;;;26.30;50.30;;;;;;5026744;28;20426;-83
2022/09/21 09:30:38;;;;;;;4.63;4.20;;;26.60;49.90;;;;;;5022180;28;20479;-83
2022/09/21 09:33:10;;;;;;;3.77;3.57;;;26.80;49.60;;;;;;5023651;28;20419;-82
2022/09/21 09:35:40;;;;;;;4.90;3.90;;;27.10;49.40;;;;;;5017590;28;20424;-83
2022/09/21 09:38:14;;;;;;;3.63;3.43;;;27.30;49.10;;;;;;5002971;28;20427;-83
2022/09/21 09:40:53;;;;;;;4.00;3.70;;;27.60;48.90;;;;;;5002251;28;20496;-83
2022/09/21 09:43:29;;;;;;;3.80;3.50;;;27.90;48.70;;;;;;4983034;28;20446;-83
2022/09/21 09:46:01;;;;;;;4.20;3.60;;;28.10;48.40;;;;;;4983569;28;20475;-84
2022/09/21 09:48:49;;;;;;;3.60;3.40;;;28.40;48.20;;;;;;4983438;28;20427;-84
2022/09/21 09:51:26;;;;;;;3.67;3.47;;;28.60;47.90;;;;;;4982982;28;20525;-83
2022/09/21 09:53:57;;;;;;;3.87;3.57;;;28.90;47.60;;;;;;4981684;28;20453;-83
2022/09/21 09:56:25;;;;;;;4.07;3.77;;;29.10;47.30;;;;;;5008743;28;20431;-83
2022/09/21 09:58:56;;;;;;;4.03;3.77;;;29.30;47.10;;;;;;5012639;28;20450;-82
2022/09/21 10:01:38;;;;;;;3.53;3.23;;;29.60;46.80;;;;;;5021456;28;20498;-83
2022/09/21 10:04:07;;;;;;;3.90;3.60;;;29.90;46.50;;;;;;5022302;28;20483;-83
2022/09/21 10:06:35;;;;;;;3.40;3.20;;;30.20;46.20;;;;;;5022546;28;20476;-83
2022/09/21 10:09:18;;;;;;;3.43;3.23;;;30.50;45.80;;;;;;5021858;28;20447;-83
2022/09/21 10:11:46;;;;;;;3.10;2.90;;;30.80;45.50;;;;;;5006834;28;20471;-83
2022/09/21 10:14:17;;;;;;;4.87;3.70;;;31.10;45.10;;;;;;5029727;28;20446;-82
2022/09/21 10:16:46;;;;;;;3.60;3.30;;;31.40;44.70;;;;;;5027981;28;20440;-83
2022/09/21 10:19:15;;;;;;;4.33;3.87;;;31.60;44.30;;;;;;5029004;28;20468;-81
2022/09/21 10:21:44;;;;;;;3.70;3.20;;;31.80;43.90;;;;;;5006700;28;20427;-81
2022/09/21 10:24:22;;;;;;;3.60;3.37;;;31.90;43.60;;;;;;5002059;28;20460;-81
2022/09/21 10:26:53;;;;;;;4.60;4.20;;;31.90;43.80;;;;;;5006348;28;20472;-82
2022/09/21 10:29:32;;;;;;;4.00;3.70;;;31.80;43.50;;;;;;5000610;28;20472;-82
2022/09/21 10:32:01;;;;;;;3.60;3.40;;;31.90;43.60;;;;;;5002123;28;20461;-79
2022/09/21 10:34:30;;;;;;;4.03;3.70;;;31.90;43.30;;;;;;5000669;28;20437;-83
2022/09/21 10:36:59;;;;;;;4.23;3.97;;;31.80;43.00;;;;;;5001831;28;20436;-82
2022/09/21 10:39:31;;;;;;;4.70;4.30;;;31.80;43.20;;;;;;5004885;28;20469;-84
2022/09/21 10:42:02;;;;;;;4.23;3.93;;;32.00;43.30;;;;;;5006607;28;20460;-82
2022/09/21 10:44:38;;;;;;;3.67;3.47;;;32.30;43.20;;;;;;5007553;28;20530;-83
2022/09/21 10:47:21;;;;;;;4.13;3.83;;;32.60;42.70;;;;;;5010176;28;20473;-84
2022/09/21 10:49:50;;;;;;;3.60;3.40;;;32.80;42.30;;;;;;5020419;28;20511;-84
2022/09/21 10:52:21;;;;;;;3.80;3.50;;;33.10;41.90;;;;;;5009471;28;20448;-83
2022/09/21 10:54:52;;;;;;;4.73;4.27;;;33.40;41.60;;;;;;5007892;28;20457;-84
2022/09/21 10:57:21;;;;;;;4.37;4.10;;;33.70;41.00;;;;;;5009391;28;20443;-83
2022/09/21 10:59:49;;;;;;;4.13;3.77;;;33.90;40.90;;;;;;5007917;28;20449;-82
2022/09/21 11:02:33;;;;;;;4.97;4.13;;;34.10;40.50;;;;;;5006233;28;20463;-83
2022/09/21 11:05:04;;;;;;;4.53;4.13;;;34.00;40.10;;;;;;5006013;28;20509;-83
2022/09/21 11:07:35;;;;;;;4.10;3.80;;;33.80;40.10;;;;;;5008436;28;20469;-82
2022/09/21 11:10:10;;;;;;;4.27;3.97;;;34.10;40.80;;;;;;5007533;28;20471;-83
2022/09/21 11:12:45;;;;;;;4.10;3.80;;;35.20;39.20;;;;;;5007253;28;20444;-84
2022/09/21 11:15:20;;;;;;;4.03;3.83;;;36.60;37.70;;;;;;5003616;28;20445;-82
2022/09/21 11:17:50;;;;;;;3.80;3.57;;;37.90;35.90;;;;;;5010657;28;20444;-80
2022/09/21 11:20:25;;;;;;;3.13;3.03;;;39.20;34.20;;;;;;5017554;28;20468;-81
2022/09/21 11:23:00;;;;;;;3.37;3.17;;;40.40;32.40;;;;;;5013294;28;20455;-81
2022/09/21 11:25:35;;;;;;;3.13;3.00;;;41.50;30.90;;;;;;5013844;28;20444;-81
2022/09/21 11:28:12;;;;;;;3.17;2.97;;;42.50;29.90;;;;;;5024683;28;20471;-81
2022/09/21 11:31:04;;;;;;;2.77;2.67;;;43.40;29.00;;;;;;5007301;28;20472;-78
2022/09/21 11:33:44;;;;;;;2.63;2.53;;;44.20;28.20;;;;;;5003147;28;20467;-79
2022/09/21 11:36:16;;;;;;;2.50;2.40;;;45.10;27.40;;;;;;5003370;28;21040;-79
2022/09/21 11:38:50;;;;;;;2.20;2.10;;;45.80;26.70;;;;;;5008879;28;20464;-78
2022/09/21 11:41:34;;;;;;;2.30;2.20;;;46.40;26.20;;;;;;5001138;28;20465;-80
2022/09/21 11:44:14;;;;;;;2.30;2.20;;;47.00;25.80;;;;;;5008374;28;20487;-84
2022/09/21 11:46:48;;;;;;;2.50;2.40;;;47.40;25.00;;;;;;5007172;28;20226;-81
2022/09/21 11:49:27;;;;;;;1.83;1.83;;;47.90;24.90;;;;;;5010177;28;20219;-81
2022/09/21 11:52:03;;;;;;;2.50;2.40;;;48.40;24.50;;;;;;5021385;28;20194;-81
2022/09/21 11:54:50;;;;;;;2.33;2.33;;;48.80;24.00;;;;;;5022497;28;20212;-81
2022/09/21 11:57:24;;;;;;;2.03;2.03;;;49.00;23.70;;;;;;5031218;28;20206;-81
2022/09/21 12:00:14;;;;;;;2.10;2.00;;;49.20;23.70;;;;;;5031020;28;20218;-81
2022/09/21 12:03:04;;;;;;;2.03;2.03;;;49.50;23.60;;;;;;5030450;28;20216;-83
2022/09/21 12:05:36;;;;;;;1.80;1.80;;;49.80;23.10;;;;;;5029465;28;20203;-83
2022/09/21 12:08:24;;;;;;;1.67;1.67;;;50.10;23.20;;;;;;5026977;28;20211;-81
2022/09/21 12:10:59;;;;;;;2.05;1.85;;;50.40;22.80;;;;;;5022631;28;20280;-83
2022/09/21 12:13:32;;;;;;;1.50;1.50;;;50.50;22.70;;;;;;5030391;28;20205;-82
2022/09/21 12:16:03;;;;;;;2.28;2.17;;;50.50;22.50;;;;;;5028793;28;20198;-82
2022/09/21 12:18:34;;;;;;;1.60;1.60;;;50.60;22.30;;;;;;5029891;28;20194;-83
2022/09/21 12:21:06;;;;;;;1.92;1.83;;;50.60;22.00;;;;;;5028756;28;20280;-82
2022/09/21 12:23:38;;;;;;;1.90;1.80;;;50.80;22.10;;;;;;5029299;28;20206;-81
2022/09/21 12:26:07;;;;;;;2.10;2.10;;;48.40;22.70;;;;;;5024817;28;20205;-81
2022/09/21 12:28:39;;;;;;;2.63;2.40;;;47.20;24.00;;;;;;5019251;28;20218;-81
2022/09/21 12:31:11;;;;;;;2.63;2.53;;;45.40;24.50;;;;;;5029148;28;20460;-81
2022/09/21 12:33:42;;;;;;;3.13;3.03;;;43.80;25.60;;;;;;5028234;28;20458;-81
2022/09/21 12:36:13;;;;;;;3.17;2.80;;;42.40;26.80;;;;;;5026619;28;20432;-81
2022/09/21 12:38:43;;;;;;;2.80;2.70;;;42.20;28.70;;;;;;5031109;28;20455;-80
2022/09/21 12:41:14;;;;;;;2.70;2.60;;;43.60;26.70;;;;;;5031555;28;20478;-80
2022/09/21 12:43:46;;;;;;;2.83;2.73;;;42.70;26.90;;;;;;5019094;28;20473;-80
2022/09/21 12:46:17;;;;;;;2.43;2.33;;;43.80;26.50;;;;;;5012010;28;20455;-80
2022/09/21 12:48:45;;;;;;;2.20;2.10;;;45.10;25.30;;;;;;5011467;28;20457;-80
2022/09/21 12:51:15;;;;;;;2.20;2.20;;;46.00;24.60;;;;;;5012423;28;20468;-80
2022/09/21 12:53:46;;;;;;;2.20;2.20;;;45.30;24.30;;;;;;5011229;28;20445;-80
2022/09/21 12:56:25;;;;;;;3.00;2.90;;;43.60;25.40;;;;;;5011168;28;20441;-81
2022/09/21 12:59:12;;;;;;;2.70;2.60;;;42.00;26.60;;;;;;5010917;28;20444;-81
2022/09/21 13:01:42;;;;;;;3.20;3.10;;;40.70;27.90;;;;;;5015680;28;20443;-81
2022/09/21 13:04:33;;;;;;;2.97;2.87;;;39.70;28.80;;;;;;5030673;28;20431;-80
2022/09/21 13:07:43;;;;;;;3.43;3.23;;;39.40;30.50;;;;;;5030738;28;20467;-80
2022/09/21 13:10:18;;;;;;;3.00;2.90;;;40.20;28.80;;;;;;5024912;28;20459;-82
2022/09/21 13:12:47;;;;;;;2.77;2.67;;;42.40;27.50;;;;;;5030600;28;20470;-82